Time;durP1;ratioP1;P1;durP2;ratioP2;P2;SDS_P1;SDS_P2;PMS_P1;PMS_P2;Temp;Humidity;BMP_temperature;BMP_pressure;BME280_temperature;BME280_humidity;BME280_pressure;Samples;Min_cycle;Max_cycle;Signal;HPM_P1;HPM_P2
2022/06/24 00:01:40;;;;;;;8.70;2.42;;;25.10;72.30;;;;;;5028779;28;20074;-61
2022/06/24 00:04:05;;;;;;;10.45;2.45;;;25.00;72.50;;;;;;5045513;28;20104;-61
2022/06/24 00:06:46;;;;;;;5.18;2.50;;;25.10;72.80;;;;;;5009781;28;20037;-61
2022/06/24 00:09:12;;;;;;;8.32;2.60;;;25.00;72.90;;;;;;5026208;28;20029;-61
2022/06/24 00:11:37;;;;;;;13.90;3.13;;;25.00;73.00;;;;;;5045464;28;20061;-61
2022/06/24 00:14:11;;;;;;;10.48;2.88;;;25.00;73.10;;;;;;5044724;28;20021;-61
2022/06/24 00:16:56;;;;;;;5.13;2.60;;;25.00;72.90;;;;;;5025650;28;20028;-61
2022/06/24 00:19:22;;;;;;;5.68;2.50;;;25.00;73.00;;;;;;5007446;28;20116;-61
2022/06/24 00:22:04;;;;;;;8.63;2.85;;;24.90;73.00;;;;;;5025408;28;20033;-61
2022/06/24 00:24:30;;;;;;;7.63;2.45;;;24.90;73.20;;;;;;5026368;28;20045;-61
2022/06/24 00:26:56;;;;;;;10.00;2.70;;;24.90;73.40;;;;;;5010050;28;20017;-61
2022/06/24 00:29:24;;;;;;;10.13;2.63;;;24.90;73.60;;;;;;5025941;28;20173;-61
2022/06/24 00:32:02;;;;;;;7.70;2.70;;;24.90;73.60;;;;;;5023169;28;20523;-61
2022/06/24 00:34:28;;;;;;;6.13;2.42;;;24.80;73.60;;;;;;5024171;28;20025;-61
2022/06/24 00:36:53;;;;;;;6.10;2.67;;;24.80;73.60;;;;;;5042317;28;20040;-61
2022/06/24 00:39:19;;;;;;;5.30;2.13;;;24.80;73.60;;;;;;5026571;28;20032;-61
2022/06/24 00:41:51;;;;;;;7.53;2.20;;;24.80;73.60;;;;;;5025590;28;20025;-60
2022/06/24 00:44:16;;;;;;;6.32;2.38;;;24.80;73.80;;;;;;5024624;28;20051;-60
2022/06/24 00:46:42;;;;;;;8.80;2.35;;;24.80;73.90;;;;;;5007818;28;20495;-61
2022/06/24 00:49:07;;;;;;;10.60;2.90;;;24.80;74.00;;;;;;5008173;28;20036;-60
2022/06/24 00:51:37;;;;;;;9.82;2.15;;;24.70;74.20;;;;;;5043264;28;20029;-61
2022/06/24 00:54:10;;;;;;;10.05;2.25;;;24.80;74.50;;;;;;5042372;28;20029;-61
2022/06/24 00:56:36;;;;;;;9.70;2.78;;;24.70;74.50;;;;;;5024276;28;20029;-61
2022/06/24 00:59:06;;;;;;;9.60;2.08;;;24.70;74.40;;;;;;5023921;28;20052;-61
2022/06/24 01:01:33;;;;;;;8.75;2.42;;;24.70;74.40;;;;;;5008711;28;20119;-61
2022/06/24 01:03:59;;;;;;;8.57;2.10;;;24.60;74.60;;;;;;5024285;28;20177;-61
2022/06/24 01:06:26;;;;;;;11.20;3.22;;;24.60;74.40;;;;;;5042865;28;20024;-61
2022/06/24 01:08:52;;;;;;;13.02;3.38;;;24.60;74.30;;;;;;5024550;28;20029;-61
2022/06/24 01:11:26;;;;;;;8.02;2.80;;;24.60;74.40;;;;;;5043181;28;20086;-61
2022/06/24 01:13:52;;;;;;;8.57;3.13;;;24.60;74.40;;;;;;5022878;28;20144;-61
2022/06/24 01:16:21;;;;;;;8.45;2.95;;;24.50;75.30;;;;;;5042691;28;20037;-61
2022/06/24 01:18:51;;;;;;;6.28;2.72;;;24.50;74.80;;;;;;5042812;28;20021;-61
2022/06/24 01:21:36;;;;;;;7.13;2.90;;;24.50;74.70;;;;;;5024264;28;20021;-61
2022/06/24 01:24:09;;;;;;;8.07;3.10;;;24.50;75.00;;;;;;5025017;28;20526;-61
2022/06/24 01:26:39;;;;;;;6.03;2.70;;;24.50;75.30;;;;;;5024371;28;20841;-61
2022/06/24 01:29:04;;;;;;;4.85;2.28;;;24.40;75.50;;;;;;5026238;28;20025;-61
2022/06/24 01:31:30;;;;;;;6.32;2.80;;;24.40;75.60;;;;;;5024861;28;20187;-61
2022/06/24 01:33:56;;;;;;;9.00;3.53;;;24.40;75.70;;;;;;5042576;28;20021;-61
2022/06/24 01:36:22;;;;;;;10.60;3.42;;;24.40;75.70;;;;;;5021517;28;20037;-61
2022/06/24 01:38:47;;;;;;;6.65;3.72;;;24.40;75.80;;;;;;5024399;28;20023;-61
2022/06/24 01:41:13;;;;;;;9.65;3.40;;;24.40;76.00;;;;;;5023989;28;20077;-61
2022/06/24 01:43:38;;;;;;;6.32;3.30;;;24.40;76.20;;;;;;5024613;28;20036;-61
2022/06/24 01:46:04;;;;;;;9.48;3.63;;;24.30;76.20;;;;;;5041980;28;20539;-61
2022/06/24 01:48:30;;;;;;;5.32;2.72;;;24.30;76.20;;;;;;5020968;28;20033;-61
2022/06/24 01:50:55;;;;;;;9.65;3.00;;;24.30;76.30;;;;;;5040125;28;20064;-61
2022/06/24 01:53:21;;;;;;;7.00;2.95;;;24.30;76.20;;;;;;5022800;28;20604;-61
2022/06/24 01:55:47;;;;;;;6.18;2.25;;;24.30;76.20;;;;;;5024955;28;20209;-60
2022/06/24 01:58:12;;;;;;;5.57;2.60;;;24.30;76.10;;;;;;5041213;28;20032;-61
2022/06/24 02:00:38;;;;;;;5.75;2.47;;;24.30;76.10;;;;;;5041317;28;20060;-61
2022/06/24 02:03:07;;;;;;;6.75;2.80;;;24.30;76.10;;;;;;5003439;28;20542;-61
2022/06/24 02:05:32;;;;;;;12.13;2.33;;;24.30;76.10;;;;;;5021354;28;20132;-61
2022/06/24 02:07:58;;;;;;;4.60;2.40;;;24.20;76.30;;;;;;5022236;28;20097;-61
2022/06/24 02:13:27;;;;;;;4.10;2.05;;;24.10;76.70;;;;;;5026099;28;20395;-61
2022/06/24 02:16:01;;;;;;;5.30;1.88;;;24.10;76.80;;;;;;5040205;28;20060;-61
2022/06/24 02:18:27;;;;;;;3.13;2.10;;;24.10;76.80;;;;;;5023072;28;20564;-61
2022/06/24 02:20:53;;;;;;;6.47;2.10;;;24.10;76.90;;;;;;5023758;28;20124;-61
2022/06/24 02:23:18;;;;;;;5.20;2.03;;;24.10;76.90;;;;;;5040501;28;20017;-61
2022/06/24 02:25:47;;;;;;;4.70;2.03;;;24.10;76.80;;;;;;5041839;28;20116;-61
2022/06/24 02:28:13;;;;;;;7.03;2.00;;;24.10;76.90;;;;;;5021939;28;20029;-61
2022/06/24 02:30:39;;;;;;;5.80;1.90;;;24.10;77.00;;;;;;5041141;28;20045;-61
2022/06/24 02:33:05;;;;;;;5.78;2.25;;;24.10;77.10;;;;;;5020647;28;20365;-61
2022/06/24 02:35:31;;;;;;;6.90;2.15;;;24.10;77.10;;;;;;5024331;28;20032;-61
2022/06/24 02:37:56;;;;;;;5.10;2.42;;;24.10;77.20;;;;;;5042658;28;20049;-61
2022/06/24 02:43:23;;;;;;;5.85;2.10;;;24.00;76.90;;;;;;5025813;28;20498;-61
2022/06/24 02:45:53;;;;;;;4.55;2.17;;;24.00;76.90;;;;;;5041238;28;20025;-61
2022/06/24 02:48:20;;;;;;;5.85;1.95;;;24.00;76.80;;;;;;5024122;28;20040;-61
2022/06/24 02:50:50;;;;;;;3.88;2.00;;;24.00;76.80;;;;;;5042718;28;20017;-60
2022/06/24 02:53:16;;;;;;;4.53;1.80;;;24.00;77.00;;;;;;5041280;28;20974;-61
2022/06/24 02:55:42;;;;;;;5.55;1.85;;;24.00;77.40;;;;;;5039332;28;20053;-61
2022/06/24 02:58:08;;;;;;;4.00;1.90;;;24.00;77.50;;;;;;5020553;28;20051;-61
2022/06/24 03:00:33;;;;;;;5.13;1.85;;;23.90;77.60;;;;;;5045879;28;20033;-61
2022/06/24 03:02:59;;;;;;;3.58;1.58;;;23.90;77.70;;;;;;5029266;28;20100;-61
2022/06/24 03:05:24;;;;;;;4.88;2.08;;;23.90;77.70;;;;;;5045013;28;20120;-61
2022/06/24 03:07:50;;;;;;;6.25;1.67;;;23.90;77.70;;;;;;5041788;28;20048;-61
2022/06/24 03:10:16;;;;;;;4.72;1.92;;;23.90;77.60;;;;;;5026369;28;21196;-61
2022/06/24 03:12:42;;;;;;;5.40;1.70;;;23.90;77.60;;;;;;5024686;28;20437;-61
2022/06/24 03:15:08;;;;;;;5.05;1.67;;;23.90;77.70;;;;;;5024806;28;20037;-60
2022/06/24 03:17:33;;;;;;;6.38;1.70;;;23.90;77.80;;;;;;5027017;28;20041;-61
2022/06/24 03:19:59;;;;;;;6.05;2.00;;;23.90;77.70;;;;;;5024973;28;20025;-61
2022/06/24 03:22:25;;;;;;;3.42;1.95;;;23.90;77.70;;;;;;5024053;28;20171;-61
2022/06/24 03:24:51;;;;;;;3.58;2.05;;;23.90;77.70;;;;;;5026044;28;20052;-61
2022/06/24 03:27:16;;;;;;;3.63;1.90;;;23.90;77.80;;;;;;5027460;28;20124;-61
2022/06/24 03:29:42;;;;;;;6.35;2.25;;;23.90;77.80;;;;;;5027727;28;20383;-61
2022/06/24 03:32:07;;;;;;;3.35;2.10;;;23.80;77.80;;;;;;5026126;28;20350;-62
2022/06/24 03:34:33;;;;;;;4.93;2.03;;;23.80;77.80;;;;;;5043438;28;20520;-61
2022/06/24 03:36:59;;;;;;;5.10;2.00;;;23.80;77.90;;;;;;5024848;28;20056;-61
2022/06/24 03:39:25;;;;;;;5.47;1.90;;;23.80;77.90;;;;;;5026388;28;20029;-61
2022/06/24 03:41:50;;;;;;;7.00;2.08;;;23.80;78.00;;;;;;5045645;28;20033;-61
2022/06/24 03:44:16;;;;;;;5.18;2.10;;;23.80;78.10;;;;;;5023445;28;20366;-61
2022/06/24 03:46:41;;;;;;;2.83;1.70;;;23.70;78.10;;;;;;5042348;28;20021;-60
2022/06/24 03:49:07;;;;;;;7.50;1.80;;;23.70;78.10;;;;;;5024747;28;20064;-61
2022/06/24 03:51:33;;;;;;;4.20;2.00;;;23.70;78.10;;;;;;5043907;28;20116;-61
2022/06/24 03:53:59;;;;;;;8.68;2.25;;;23.70;78.10;;;;;;5027748;28;20060;-61
2022/06/24 03:56:24;;;;;;;5.90;2.17;;;23.70;78.10;;;;;;5026574;28;20354;-61
2022/06/24 03:58:50;;;;;;;6.95;1.92;;;23.70;78.10;;;;;;5043912;28;20492;-61
2022/06/24 04:01:15;;;;;;;12.05;2.30;;;23.70;78.10;;;;;;5042341;28;20040;-61
2022/06/24 04:03:41;;;;;;;4.50;1.92;;;23.70;78.30;;;;;;5024857;28;20422;-61
2022/06/24 04:06:06;;;;;;;3.65;1.80;;;23.70;78.20;;;;;;5043931;28;20100;-61
2022/06/24 04:08:32;;;;;;;4.10;1.77;;;23.70;78.40;;;;;;5025034;28;20053;-61
2022/06/24 04:10:58;;;;;;;4.75;1.77;;;23.70;78.50;;;;;;5041727;28;20033;-61
2022/06/24 04:13:23;;;;;;;4.85;2.00;;;23.60;78.70;;;;;;5041898;28;20397;-61
2022/06/24 04:15:51;;;;;;;3.35;1.70;;;23.60;78.70;;;;;;5042485;28;20037;-61
2022/06/24 04:18:17;;;;;;;6.45;1.88;;;23.60;78.80;;;;;;5025952;28;20039;-61
2022/06/24 04:20:42;;;;;;;6.05;1.70;;;23.60;78.80;;;;;;5044939;28;20029;-61
2022/06/24 04:23:08;;;;;;;5.93;1.58;;;23.60;78.70;;;;;;5026177;28;20120;-61
2022/06/24 04:25:34;;;;;;;3.97;1.65;;;23.60;78.60;;;;;;5042012;28;20033;-61
2022/06/24 04:28:00;;;;;;;6.95;2.08;;;23.60;78.60;;;;;;5041466;28;20041;-61
2022/06/24 04:30:26;;;;;;;4.25;1.38;;;23.60;78.60;;;;;;5043252;28;20013;-61
2022/06/24 04:32:51;;;;;;;13.70;2.97;;;23.60;78.50;;;;;;5025276;28;20028;-61
2022/06/24 04:35:17;;;;;;;9.93;2.53;;;23.50;78.50;;;;;;5024244;28;20036;-61
2022/06/24 04:37:42;;;;;;;20.17;3.80;;;23.60;78.50;;;;;;5023775;28;20057;-61
2022/06/24 04:40:10;;;;;;;21.08;3.90;;;23.60;78.70;;;;;;5042445;28;20037;-61
2022/06/24 04:42:35;;;;;;;29.10;4.30;;;23.60;78.80;;;;;;5023485;28;20074;-61
2022/06/24 04:45:01;;;;;;;27.00;4.32;;;23.60;78.80;;;;;;5023653;28;20037;-61
2022/06/24 04:47:27;;;;;;;22.88;3.88;;;23.60;78.90;;;;;;5026263;28;20060;-61
2022/06/24 04:49:52;;;;;;;10.82;2.65;;;23.60;78.50;;;;;;5023904;28;20492;-61
2022/06/24 04:52:18;;;;;;;20.55;3.30;;;23.60;78.40;;;;;;5042389;28;20044;-61
2022/06/24 04:54:43;;;;;;;16.98;3.63;;;23.60;78.60;;;;;;5022429;28;20514;-61
2022/06/24 04:57:09;;;;;;;15.50;3.03;;;23.50;78.60;;;;;;5041207;28;20366;-61
2022/06/24 04:59:34;;;;;;;18.00;3.42;;;23.60;78.70;;;;;;5043499;28;20100;-61
2022/06/24 05:02:00;;;;;;;14.07;2.90;;;23.60;78.60;;;;;;5043027;28;20068;-61
2022/06/24 05:04:25;;;;;;;18.25;3.22;;;23.60;78.60;;;;;;5007877;28;20049;-61
2022/06/24 05:06:51;;;;;;;17.33;3.75;;;23.60;78.60;;;;;;5038968;28;20109;-63
2022/06/24 05:09:17;;;;;;;12.80;3.50;;;23.60;78.80;;;;;;5022168;28;20445;-63
2022/06/24 05:11:43;;;;;;;15.48;3.03;;;23.60;78.80;;;;;;5024433;28;20495;-63
2022/06/24 05:14:08;;;;;;;10.25;3.22;;;23.50;78.90;;;;;;5025231;28;20020;-63
2022/06/24 05:16:34;;;;;;;16.40;3.05;;;23.60;79.10;;;;;;5042014;28;20439;-63
2022/06/24 05:18:59;;;;;;;10.77;2.80;;;23.60;79.10;;;;;;5041313;28;20029;-63
2022/06/24 05:21:25;;;;;;;12.90;3.20;;;23.60;79.20;;;;;;5041235;28;20090;-63
2022/06/24 05:23:50;;;;;;;14.98;3.00;;;23.60;79.30;;;;;;5025641;28;20033;-64
2022/06/24 05:26:17;;;;;;;9.48;2.88;;;23.60;79.10;;;;;;5025233;28;20148;-61
2022/06/24 05:28:42;;;;;;;13.25;2.75;;;23.60;79.30;;;;;;5024600;28;20104;-61
2022/06/24 05:31:08;;;;;;;10.02;2.83;;;23.60;79.50;;;;;;5007248;28;20603;-61
2022/06/24 05:33:33;;;;;;;9.50;2.50;;;23.50;80.00;;;;;;5040464;28;20013;-61
2022/06/24 05:35:59;;;;;;;6.07;2.30;;;23.50;80.60;;;;;;5041124;28;20077;-61
2022/06/24 05:38:24;;;;;;;10.38;2.53;;;23.50;80.90;;;;;;5008874;28;20504;-61
2022/06/24 05:40:51;;;;;;;11.40;2.67;;;23.50;81.30;;;;;;5024678;28;20029;-61
2022/06/24 05:43:19;;;;;;;7.95;1.98;;;23.50;81.90;;;;;;5041268;28;20068;-61
2022/06/24 05:45:45;;;;;;;4.97;2.33;;;23.40;81.50;;;;;;5022625;28;20408;-61
2022/06/24 05:48:11;;;;;;;10.93;2.30;;;23.40;81.60;;;;;;5023969;28;20022;-61
2022/06/24 05:50:37;;;;;;;8.85;2.83;;;23.40;81.90;;;;;;5024778;28;20326;-61
2022/06/24 05:55:48;;;;;;;10.23;2.63;;;23.40;83.10;;;;;;5006188;28;20064;-61
2022/06/24 05:58:13;;;;;;;6.50;2.40;;;23.40;82.70;;;;;;5021367;28;20139;-61
2022/06/24 06:00:39;;;;;;;11.32;2.78;;;23.40;82.90;;;;;;5019065;28;20033;-61
2022/06/24 06:03:05;;;;;;;9.30;2.28;;;23.40;82.80;;;;;;5021103;28;20489;-61
2022/06/24 06:05:30;;;;;;;6.97;2.63;;;23.50;82.80;;;;;;5039577;28;20024;-61
2022/06/24 06:07:56;;;;;;;7.57;2.83;;;23.30;82.60;;;;;;5037520;28;20041;-61
2022/06/24 06:10:21;;;;;;;14.25;3.42;;;23.30;82.90;;;;;;5018056;28;20052;-62
2022/06/24 06:12:47;;;;;;;8.07;2.80;;;23.30;82.90;;;;;;5019351;28;20060;-61
2022/06/24 06:15:12;;;;;;;11.30;2.72;;;23.20;83.40;;;;;;5039306;28;20032;-62
2022/06/24 06:17:38;;;;;;;10.48;3.08;;;23.20;84.00;;;;;;5023415;28;20029;-61
2022/06/24 06:20:04;;;;;;;9.27;2.80;;;23.20;83.90;;;;;;5039347;28;20036;-61
2022/06/24 06:22:29;;;;;;;15.15;2.75;;;23.20;84.70;;;;;;5039016;28;20291;-61
2022/06/24 06:24:55;;;;;;;26.80;4.93;;;23.10;84.40;;;;;;5020569;28;20206;-61
2022/06/24 06:27:21;;;;;;;18.08;3.60;;;23.10;84.30;;;;;;5038236;28;20090;-61
2022/06/24 06:29:47;;;;;;;16.52;3.45;;;23.10;84.10;;;;;;5040555;28;20040;-61
2022/06/24 06:32:12;;;;;;;10.55;2.75;;;23.10;83.90;;;;;;5021159;28;20052;-61
2022/06/24 06:34:38;;;;;;;13.52;3.28;;;23.10;83.60;;;;;;5041355;28;20388;-61
2022/06/24 06:37:03;;;;;;;17.98;3.90;;;23.10;83.70;;;;;;5041777;28;20055;-61
2022/06/24 06:39:29;;;;;;;26.40;4.97;;;23.10;83.70;;;;;;5026823;28;20037;-61
2022/06/24 06:41:54;;;;;;;46.65;6.88;;;23.10;83.60;;;;;;5041347;28;20315;-61
2022/06/24 06:44:20;;;;;;;41.05;5.82;;;23.20;83.70;;;;;;5008054;28;21008;-62
2022/06/24 06:46:45;;;;;;;42.45;6.80;;;23.10;83.50;;;;;;5021670;28;20417;-61
2022/06/24 06:49:11;;;;;;;44.22;5.82;;;23.10;83.90;;;;;;5019983;28;20248;-61
2022/06/24 06:51:37;;;;;;;97.47;9.52;;;23.20;83.50;;;;;;5023668;28;20508;-61
2022/06/24 06:54:03;;;;;;;60.90;8.75;;;23.20;83.50;;;;;;5040570;28;20083;-64
2022/06/24 06:56:29;;;;;;;51.17;6.97;;;23.20;83.70;;;;;;5023979;28;20710;-62
2022/06/24 06:58:54;;;;;;;68.68;8.75;;;23.20;83.70;;;;;;5025758;28;20025;-62
2022/06/24 07:01:20;;;;;;;58.38;8.20;;;23.10;83.80;;;;;;5026222;28;20047;-62
2022/06/24 07:03:45;;;;;;;61.17;9.23;;;23.20;83.90;;;;;;5020284;28;20037;-62
2022/06/24 07:06:11;;;;;;;56.63;7.35;;;23.20;83.40;;;;;;5039798;28;20033;-62
2022/06/24 07:08:36;;;;;;;94.32;13.90;;;23.20;83.40;;;;;;5025822;28;20053;-62
2022/06/24 07:11:03;;;;;;;49.53;8.32;;;23.20;83.60;;;;;;5039683;28;20032;-62
2022/06/24 07:13:29;;;;;;;56.78;8.60;;;23.20;83.40;;;;;;5017028;28;20044;-62
2022/06/24 07:15:55;;;;;;;55.38;7.07;;;23.20;83.50;;;;;;5018832;28;20037;-61
2022/06/24 07:18:20;;;;;;;40.53;7.75;;;23.30;83.50;;;;;;5018485;28;20195;-62
2022/06/24 07:20:46;;;;;;;80.45;9.43;;;23.30;82.90;;;;;;5041528;28;20549;-62
2022/06/24 07:23:11;;;;;;;48.63;7.68;;;23.30;83.10;;;;;;5028851;28;20448;-62
2022/06/24 07:25:37;;;;;;;50.53;7.65;;;23.30;83.10;;;;;;5018964;28;20381;-62
2022/06/24 07:28:04;;;;;;;68.65;8.45;;;23.40;83.00;;;;;;5020177;28;20182;-62
2022/06/24 07:30:30;;;;;;;59.92;8.63;;;23.40;83.40;;;;;;5021245;28;20057;-62
2022/06/24 07:32:55;;;;;;;48.92;7.63;;;23.40;83.30;;;;;;5004231;28;20487;-62
2022/06/24 07:35:21;;;;;;;41.05;6.95;;;23.40;83.00;;;;;;5023268;28;20637;-62
2022/06/24 07:37:46;;;;;;;41.00;6.10;;;23.40;82.60;;;;;;5022162;28;20061;-61
2022/06/24 07:40:12;;;;;;;38.63;6.97;;;23.40;82.50;;;;;;5039328;28;20127;-62
2022/06/24 07:42:38;;;;;;;65.43;7.93;;;23.50;82.40;;;;;;5036676;28;20060;-62
2022/06/24 07:45:04;;;;;;;54.40;7.18;;;23.50;83.20;;;;;;5007321;28;20376;-62
2022/06/24 07:47:29;;;;;;;58.08;8.82;;;23.50;82.60;;;;;;5020230;28;20432;-62
2022/06/24 07:49:55;;;;;;;70.15;9.65;;;23.60;83.00;;;;;;5038160;28;20029;-62
2022/06/24 07:52:20;;;;;;;81.55;10.38;;;23.60;82.60;;;;;;5040982;28;20043;-62
2022/06/24 07:54:46;;;;;;;88.28;11.93;;;23.60;82.40;;;;;;5040694;28;20095;-62
2022/06/24 07:57:11;;;;;;;87.85;10.23;;;23.70;82.40;;;;;;5005989;28;20111;-62
2022/06/24 07:59:37;;;;;;;59.58;8.30;;;23.80;82.20;;;;;;5020113;28;20140;-62
2022/06/24 08:02:07;;;;;;;46.30;7.45;;;23.80;81.80;;;;;;5005196;28;21971;-62
2022/06/24 08:04:32;;;;;;;64.72;9.30;;;23.80;81.80;;;;;;5033876;28;20037;-62
2022/06/24 08:06:58;;;;;;;71.57;8.40;;;23.90;81.70;;;;;;5016224;28;20033;-62
2022/06/24 08:09:26;;;;;;;54.38;7.43;;;23.90;81.70;;;;;;5018797;28;20045;-61
2022/06/24 08:11:52;;;;;;;44.20;7.20;;;23.90;81.90;;;;;;5018915;28;20346;-62
2022/06/24 08:14:18;;;;;;;36.20;7.28;;;23.90;81.80;;;;;;5017984;28;20106;-62
2022/06/24 08:16:43;;;;;;;57.60;7.82;;;23.90;81.90;;;;;;5002038;28;20040;-61
2022/06/24 08:19:09;;;;;;;58.88;9.40;;;24.00;81.80;;;;;;5001550;28;20036;-62
2022/06/24 08:21:35;;;;;;;74.30;9.15;;;24.00;81.90;;;;;;4999329;28;20572;-62
2022/06/24 08:24:01;;;;;;;46.80;7.82;;;24.00;82.30;;;;;;5036051;28;20110;-63
2022/06/24 08:26:26;;;;;;;54.10;7.47;;;24.00;82.00;;;;;;5024053;28;20575;-62
2022/06/24 08:28:52;;;;;;;70.07;8.85;;;24.00;81.90;;;;;;5034590;28;20059;-62
2022/06/24 08:31:17;;;;;;;74.93;9.60;;;24.00;82.00;;;;;;5021771;28;20032;-62
2022/06/24 08:33:43;;;;;;;109.45;12.98;;;24.00;82.30;;;;;;5039092;28;20029;-62
2022/06/24 08:36:08;;;;;;;101.15;11.48;;;24.10;82.20;;;;;;5018344;28;20095;-62
2022/06/24 08:38:34;;;;;;;113.13;13.70;;;24.20;83.10;;;;;;5038471;28;20162;-62
2022/06/24 08:41:01;;;;;;;83.28;11.10;;;24.20;82.40;;;;;;5016059;28;20725;-62
2022/06/24 08:43:33;;;;;;;88.25;11.50;;;24.20;82.40;;;;;;4996888;28;20253;-63
2022/06/24 08:45:59;;;;;;;90.72;12.68;;;24.20;82.30;;;;;;5010917;28;20175;-62
2022/06/24 08:48:28;;;;;;;103.15;10.65;;;24.20;82.20;;;;;;5016845;28;20060;-62
2022/06/24 08:50:54;;;;;;;80.68;11.18;;;24.20;81.90;;;;;;4990527;28;20033;-62
2022/06/24 08:53:21;;;;;;;100.78;13.32;;;24.30;82.40;;;;;;5003017;28;20024;-62
2022/06/24 08:55:50;;;;;;;111.07;12.57;;;24.30;82.30;;;;;;5019354;28;20028;-62
2022/06/24 08:58:16;;;;;;;114.18;12.90;;;24.30;82.30;;;;;;5020539;28;20440;-61
2022/06/24 09:00:41;;;;;;;93.53;13.38;;;24.30;81.90;;;;;;5018325;28;20025;-62
2022/06/24 09:03:07;;;;;;;160.55;16.70;;;24.40;81.70;;;;;;5000471;28;20490;-62
2022/06/24 09:05:33;;;;;;;106.13;12.80;;;24.40;81.50;;;;;;5014722;28;20139;-62
2022/06/24 09:08:12;;;;;;;85.20;12.20;;;24.40;81.10;;;;;;5014308;28;20147;-62
2022/06/24 09:10:39;;;;;;;108.53;12.15;;;24.50;80.70;;;;;;5015299;28;20033;-62
2022/06/24 09:13:04;;;;;;;115.53;13.95;;;24.40;80.10;;;;;;5035040;28;20029;-63
2022/06/24 09:15:30;;;;;;;88.20;12.60;;;24.50;80.10;;;;;;5019142;28;20029;-62
2022/06/24 09:17:55;;;;;;;85.32;11.65;;;24.50;79.90;;;;;;5014329;28;20052;-62
2022/06/24 09:20:22;;;;;;;92.07;11.10;;;24.50;79.80;;;;;;5014852;28;20087;-62
2022/06/24 09:22:49;;;;;;;96.97;11.60;;;24.50;79.70;;;;;;5016777;28;20060;-62
2022/06/24 09:25:14;;;;;;;109.35;11.80;;;24.60;79.80;;;;;;4984538;28;20032;-62
2022/06/24 09:27:45;;;;;;;76.03;10.30;;;24.60;79.70;;;;;;5017809;28;20056;-62
2022/06/24 09:30:12;;;;;;;90.38;11.60;;;24.60;79.70;;;;;;5000812;28;20103;-62
2022/06/24 09:32:51;;;;;;;101.55;11.52;;;24.60;79.70;;;;;;5012845;28;20037;-62
2022/06/24 09:35:17;;;;;;;88.35;10.85;;;24.60;79.70;;;;;;5028893;28;20067;-62
2022/06/24 09:37:44;;;;;;;74.72;9.75;;;24.70;79.80;;;;;;5009657;28;20136;-62
2022/06/24 09:40:37;;;;;;;93.68;12.52;;;24.70;80.20;;;;;;5012664;28;20026;-62
2022/06/24 09:43:04;;;;;;;50.13;9.07;;;24.80;80.40;;;;;;5005763;28;20037;-62
2022/06/24 09:45:52;;;;;;;59.75;8.20;;;24.80;80.10;;;;;;5001326;28;20117;-62
2022/06/24 09:48:28;;;;;;;84.40;10.93;;;24.80;80.10;;;;;;5013765;28;20029;-62
2022/06/24 09:50:57;;;;;;;81.38;11.63;;;24.80;80.50;;;;;;5013938;28;20029;-62
2022/06/24 09:53:26;;;;;;;185.20;20.90;;;24.90;80.40;;;;;;5014107;28;20044;-63
2022/06/24 09:55:53;;;;;;;69.93;10.52;;;24.90;79.70;;;;;;5014809;28;20627;-62
2022/06/24 09:58:19;;;;;;;108.55;13.63;;;24.90;79.50;;;;;;5014846;28;20119;-63
2022/06/24 10:00:45;;;;;;;86.05;11.50;;;24.90;79.30;;;;;;4998830;28;20745;-62
2022/06/24 10:03:12;;;;;;;72.38;9.18;;;25.00;79.10;;;;;;5010036;28;20100;-62
2022/06/24 10:06:01;;;;;;;71.80;9.73;;;24.90;78.60;;;;;;5008042;28;20087;-63
2022/06/24 10:08:27;;;;;;;156.15;18.35;;;25.00;78.20;;;;;;5016417;28;20653;-62
2022/06/24 10:10:56;;;;;;;93.35;11.77;;;25.00;78.40;;;;;;5016017;28;20128;-62
2022/06/24 10:13:28;;;;;;;61.85;9.95;;;25.00;77.70;;;;;;5002813;28;20112;-62
2022/06/24 10:15:54;;;;;;;71.30;9.48;;;25.00;77.50;;;;;;5016140;28;20025;-62
2022/06/24 10:18:23;;;;;;;80.82;11.15;;;25.10;77.30;;;;;;5013480;28;20131;-62
2022/06/24 10:20:50;;;;;;;80.38;9.95;;;25.10;76.90;;;;;;5012021;28;20113;-62
2022/06/24 10:23:34;;;;;;;58.80;9.80;;;25.10;76.80;;;;;;4996963;28;20049;-62
2022/06/24 10:26:07;;;;;;;37.40;7.35;;;25.10;76.80;;;;;;5015574;28;20044;-62
2022/06/24 10:28:33;;;;;;;65.05;8.52;;;25.10;76.50;;;;;;5015438;28;20033;-62
2022/06/24 10:30:58;;;;;;;44.20;7.53;;;25.20;76.40;;;;;;5017365;28;20041;-62
2022/06/24 10:33:28;;;;;;;84.53;10.57;;;25.20;75.90;;;;;;5017185;28;20044;-62
2022/06/24 10:36:03;;;;;;;48.72;7.63;;;25.20;75.70;;;;;;4998083;28;20025;-62
2022/06/24 10:38:39;;;;;;;;;;;25.20;75.20;;;;;;4998641;28;20049;-62
2022/06/24 10:41:06;;;;;;;56.05;8.10;;;25.20;74.90;;;;;;5015976;28;19923;-62
2022/06/24 10:43:36;;;;;;;40.30;7.32;;;25.20;74.60;;;;;;4996606;28;20158;-62
2022/06/24 10:46:13;;;;;;;38.13;6.90;;;25.20;74.20;;;;;;5020093;28;20017;-63
2022/06/24 10:48:51;;;;;;;47.45;8.35;;;25.20;74.20;;;;;;5032273;28;20056;-62
2022/06/24 10:51:18;;;;;;;54.75;8.27;;;25.20;73.40;;;;;;5026995;28;20024;-62
2022/06/24 10:54:02;;;;;;;49.15;7.32;;;25.30;74.00;;;;;;5000440;28;20044;-62
2022/06/24 10:56:42;;;;;;;45.15;7.20;;;25.20;73.30;;;;;;5036520;28;20041;-62
2022/06/24 10:59:07;;;;;;;71.25;9.10;;;25.30;73.70;;;;;;5018784;28;20033;-63
2022/06/24 11:01:33;;;;;;;47.45;7.45;;;25.30;73.60;;;;;;5033212;28;20036;-62
2022/06/24 11:04:00;;;;;;;52.38;7.00;;;25.30;73.30;;;;;;5033195;28;20017;-62
2022/06/24 11:06:26;;;;;;;44.45;8.00;;;25.30;73.90;;;;;;5029629;28;20052;-62
2022/06/24 11:08:51;;;;;;;49.40;7.85;;;25.30;73.10;;;;;;4999312;28;20037;-62
2022/06/24 11:11:35;;;;;;;73.85;8.57;;;25.30;73.10;;;;;;5006564;28;20052;-62
2022/06/24 11:14:27;;;;;;;68.90;8.73;;;25.30;73.10;;;;;;4998732;28;20053;-62
2022/06/24 11:16:52;;;;;;;73.93;8.60;;;25.30;73.30;;;;;;5013848;28;20075;-61
2022/06/24 11:19:18;;;;;;;47.03;7.93;;;25.30;73.90;;;;;;5018950;28;20439;-62
2022/06/24 11:21:50;;;;;;;42.00;7.13;;;25.30;74.30;;;;;;5019951;28;20128;-63
2022/06/24 11:24:19;;;;;;;48.92;8.00;;;25.30;74.30;;;;;;5020303;28;20021;-62
2022/06/24 11:27:07;;;;;;;92.22;10.75;;;25.30;74.80;;;;;;5013080;28;20196;-65
2022/06/24 11:29:53;;;;;;;61.15;9.75;;;25.20;76.00;;;;;;5015250;28;20083;-62
2022/06/24 11:32:18;;;;;;;82.50;11.80;;;25.20;76.30;;;;;;5016644;28;20021;-62
2022/06/24 11:34:44;;;;;;;67.97;10.10;;;25.20;77.50;;;;;;5032854;28;20909;-62
2022/06/24 11:37:10;;;;;;;69.03;8.73;;;25.20;78.70;;;;;;5036423;28;20132;-61
2022/06/24 11:39:36;;;;;;;57.58;9.70;;;25.20;79.00;;;;;;5024237;28;20106;-62
2022/06/24 11:42:02;;;;;;;69.68;9.60;;;25.10;79.30;;;;;;5039057;28;20021;-62
2022/06/24 11:44:35;;;;;;;65.68;7.80;;;25.10;79.50;;;;;;5038397;28;20052;-62
2022/06/24 11:47:00;;;;;;;61.92;7.20;;;25.00;79.50;;;;;;5019013;28;20045;-63
2022/06/24 11:49:26;;;;;;;63.58;7.93;;;24.90;79.30;;;;;;5017861;28;20124;-62
2022/06/24 11:51:51;;;;;;;52.97;7.07;;;24.90;79.60;;;;;;5017635;28;20040;-62
2022/06/24 11:54:17;;;;;;;67.43;8.45;;;24.80;79.70;;;;;;5029222;28;20026;-62
2022/06/24 11:56:42;;;;;;;56.05;7.97;;;24.80;79.70;;;;;;5033772;28;20393;-62
2022/06/24 11:59:09;;;;;;;70.45;8.55;;;24.80;79.60;;;;;;5033971;28;20099;-62
2022/06/24 12:01:34;;;;;;;64.43;8.80;;;24.80;80.00;;;;;;5000392;28;20094;-61
2022/06/24 12:04:01;;;;;;;41.45;6.68;;;24.80;79.40;;;;;;5017747;28;20722;-61
2022/06/24 12:06:27;;;;;;;40.60;6.70;;;24.80;79.20;;;;;;5017435;28;20021;-61
2022/06/24 12:08:53;;;;;;;53.65;7.18;;;24.80;79.60;;;;;;5018867;28;20120;-62
2022/06/24 12:11:20;;;;;;;46.40;7.53;;;24.70;79.80;;;;;;5020061;28;20107;-62
2022/06/24 12:14:09;;;;;;;61.05;7.57;;;24.70;80.30;;;;;;4999915;28;20118;-62
2022/06/24 12:16:57;;;;;;;47.60;7.40;;;24.70;80.00;;;;;;5016740;28;20357;-61
2022/06/24 12:19:26;;;;;;;37.50;6.18;;;24.70;79.80;;;;;;5034036;28;20023;-60
2022/06/24 12:22:05;;;;;;;49.58;7.00;;;24.70;80.10;;;;;;5023149;28;20104;-61
2022/06/24 12:24:30;;;;;;;51.50;6.97;;;24.60;80.40;;;;;;5006594;28;20036;-61
2022/06/24 12:26:57;;;;;;;72.63;7.93;;;24.60;80.30;;;;;;5023985;28;20021;-61
2022/06/24 12:29:44;;;;;;;88.35;10.52;;;24.60;81.00;;;;;;5004348;28;20036;-61
2022/06/24 12:32:09;;;;;;;77.53;8.93;;;24.60;81.30;;;;;;5024660;28;20039;-61
2022/06/24 12:34:36;;;;;;;49.08;6.85;;;24.50;81.30;;;;;;5019670;28;20041;-61
2022/06/24 12:37:03;;;;;;;55.35;7.03;;;24.50;81.40;;;;;;4995540;28;20493;-61
2022/06/24 12:39:36;;;;;;;65.55;9.07;;;24.60;81.80;;;;;;5034376;28;20041;-61
2022/06/24 12:42:04;;;;;;;70.85;8.77;;;24.50;82.10;;;;;;5004268;28;20021;-62
2022/06/24 12:44:43;;;;;;;121.53;13.90;;;24.50;82.30;;;;;;5022177;28;20128;-61
2022/06/24 12:52:57;;;;;;;137.43;16.60;;;24.40;82.00;;;;;;5025913;28;20055;-60
2022/06/24 12:55:23;;;;;;;92.03;10.73;;;24.30;82.00;;;;;;5021660;28;20021;-61